Time;durP1;ratioP1;P1;durP2;ratioP2;P2;SDS_P1;SDS_P2;PMS_P1;PMS_P2;Temp;Humidity;BMP_temperature;BMP_pressure;BME280_temperature;BME280_humidity;BME280_pressure;Samples;Min_cycle;Max_cycle;Signal;HPM_P1;HPM_P2
2024/02/15 00:02:19;;;;;;;;;;;;;;;6.74;100.00;100048.34;4976346;28;19926;-84
2024/02/15 00:04:45;;;;;;;;;;;;;;;6.83;100.00;100042.88;4976633;28;20424;-84
2024/02/15 00:07:10;;;;;;;;;;;;;;;6.84;100.00;100049.00;4976467;28;19923;-84
2024/02/15 00:09:36;;;;;;;;;;;;;;;6.74;100.00;100035.19;4976222;28;20397;-83
2024/02/15 00:12:01;;;;;;;;;;;;;;;6.82;100.00;100029.75;4976202;28;19925;-83
2024/02/15 00:14:28;;;;;;;;;;;;;;;6.86;100.00;100024.38;4976263;28;20010;-84
2024/02/15 00:16:54;;;;;;;;;;;;;;;6.77;100.00;100026.38;4975030;28;19922;-83
2024/02/15 00:19:21;;;;;;;;;;;;;;;6.76;100.00;100024.63;4975489;28;19918;-83
2024/02/15 00:21:47;;;;;;;;;;;;;;;6.76;100.00;100019.34;4976375;28;20273;-82
2024/02/15 00:24:12;;;;;;;;;;;;;;;6.77;100.00;100026.38;4976163;28;19918;-83
2024/02/15 00:26:37;;;;;;;;;;;;;;;6.61;100.00;100021.44;4976035;28;20386;-83
2024/02/15 00:29:03;;;;;;;;;;;;;;;6.71;100.00;100022.94;4975954;28;20266;-83
2024/02/15 00:31:28;;;;;;;;;;;;;;;6.82;100.00;100013.94;4974905;28;19922;-84
2024/02/15 00:33:53;;;;;;;;;;;;;;;6.83;100.00;100018.28;4976095;28;19918;-84
2024/02/15 00:36:19;;;;;;;;;;;;;;;6.81;100.00;100012.19;4958188;28;19922;-83
2024/02/15 00:38:45;;;;;;;;;;;;;;;6.81;100.00;100018.34;4975333;28;19948;-85
2024/02/15 00:41:10;;;;;;;;;;;;;;;6.81;100.00;100018.34;4958284;28;19940;-84
2024/02/15 00:43:35;;;;;;;;;;;;;;;6.82;100.00;100017.44;4975754;28;19922;-84
2024/02/15 00:46:01;;;;;;;;;;;;;;;6.83;100.00;100024.44;4974598;28;19918;-83
2024/02/15 09:00:32;;;;;;;;;;;;;;;6.75;100.00;99860.47;5732878;23;19941;-86
2024/02/15 09:02:58;;;;;;;;;;;;;;;6.83;100.00;99860.25;5013875;28;19921;-88
2024/02/15 09:05:24;;;;;;;;;;;;;;;6.81;100.00;99851.53;5014626;28;19945;-86
2024/02/15 09:07:50;;;;;;;;;;;;;;;6.76;100.00;99856.06;4996890;28;19975;-89
2024/02/15 09:10:19;;;;;;;;;;;;;;;6.83;100.00;99855.00;5014346;28;20421;-88
2024/02/15 09:12:47;;;;;;;;;;;;;;;6.84;100.00;99854.94;5014133;28;20004;-88
2024/02/15 09:15:12;;;;;;;;;;;;;;;6.85;100.00;99850.56;5012408;28;19924;-89
2024/02/15 09:17:40;;;;;;;;;;;;;;;6.96;100.00;99847.66;4996697;28;19921;-90
2024/02/15 09:20:14;;;;;;;;;;;;;;;6.87;100.00;99852.25;5013957;28;19921;-85
2024/02/15 09:22:40;;;;;;;;;;;;;;;6.84;100.00;99851.47;5013465;28;19918;-85
2024/02/15 09:25:05;;;;;;;;;;;;;;;6.83;100.00;99841.81;5014120;28;20305;-88
2024/02/15 09:27:30;;;;;;;;;;;;;;;6.89;100.00;99839.03;4996414;28;19921;-88
2024/02/15 09:29:56;;;;;;;;;;;;;;;6.83;100.00;99837.44;5013602;28;19979;-88
2024/02/15 09:32:22;;;;;;;;;;;;;;;6.86;100.00;99831.22;5014127;28;19921;-86
2024/02/15 09:34:47;;;;;;;;;;;;;;;6.91;100.00;99829.34;5012758;28;19917;-87
2024/02/15 09:37:14;;;;;;;;;;;;;;;6.86;100.00;99820.66;5013772;28;19968;-86
2024/02/15 09:39:39;;;;;;;;;;;;;;;6.94;100.00;99823.09;5013787;28;20004;-86
2024/02/15 09:42:04;;;;;;;;;;;;;;;6.90;100.00;99817.06;5013761;28;20353;-85
2024/02/15 09:44:30;;;;;;;;;;;;;;;6.96;100.00;99813.41;5012469;28;20348;-88
2024/02/15 09:47:03;;;;;;;;;;;;;;;6.94;100.00;99818.72;5013783;28;19925;-83
2024/02/15 09:49:29;;;;;;;;;;;;;;;6.95;100.00;99816.94;4996319;28;19913;-84
2024/02/15 09:51:56;;;;;;;;;;;;;;;6.92;100.00;99817.88;5013650;28;19926;-88
2024/02/15 09:54:22;;;;;;;;;;;;;;;6.96;100.00;99809.00;5013042;28;19918;-82
2024/02/15 09:56:50;;;;;;;;;;;;;;;7.00;100.00;99804.50;4996142;28;19922;-87
2024/02/15 09:59:16;;;;;;;;;;;;;;;6.95;100.00;99798.50;5013170;28;19921;-86
2024/02/15 10:01:42;;;;;;;;;;;;;;;6.97;100.00;99797.53;5012892;28;19966;-89
2024/02/15 10:04:08;;;;;;;;;;;;;;;6.95;100.00;99787.97;4995782;28;19921;-88
2024/02/15 10:06:33;;;;;;;;;;;;;;;6.98;100.00;99796.63;5013449;28;20012;-83
2024/02/15 10:09:30;;;;;;;;;;;;;;;6.92;100.00;99799.44;5013035;28;20052;-86
2024/02/15 10:11:57;;;;;;;;;;;;;;;6.90;100.00;99806.53;4958096;28;19922;-86
2024/02/15 10:14:23;;;;;;;;;;;;;;;7.03;100.00;99805.25;5010986;28;19971;-86
2024/02/15 10:16:48;;;;;;;;;;;;;;;6.95;100.00;99801.97;5013008;28;19919;-89
2024/02/15 10:19:15;;;;;;;;;;;;;;;6.96;100.00;99797.59;5012982;28;19943;-88
2024/02/15 10:21:41;;;;;;;;;;;;;;;7.02;100.00;99797.41;4994902;28;19917;-81
2024/02/15 10:24:06;;;;;;;;;;;;;;;7.04;100.00;99799.09;5012954;28;19921;-91
2024/02/15 10:26:32;;;;;;;;;;;;;;;7.01;100.00;99796.56;5012953;28;19949;-88
2024/02/15 10:29:08;;;;;;;;;;;;;;;7.02;100.00;99800.03;5012731;28;19925;-86
2024/02/15 10:31:34;;;;;;;;;;;;;;;6.93;100.00;99795.91;5010692;28;19959;-87
2024/02/15 10:34:04;;;;;;;;;;;;;;;7.04;100.00;99799.09;5012695;28;20012;-87
2024/02/15 10:36:30;;;;;;;;;;;;;;;7.02;100.00;99794.78;5012739;28;19948;-88
2024/02/15 10:39:10;;;;;;;;;;;;;;;6.98;100.00;99794.00;5012583;28;19925;-87
2024/02/15 10:41:37;;;;;;;;;;;;;;;6.98;100.00;99794.00;5012714;28;19976;-87
2024/02/15 10:44:02;;;;;;;;;;;;;;;6.93;100.00;99792.41;4994938;28;20368;-86
2024/02/15 10:46:28;;;;;;;;;;;;;;;6.91;100.00;99795.09;5011299;28;20013;-83
2024/02/15 10:48:54;;;;;;;;;;;;;;;6.93;100.00;99793.28;5012935;28;20000;-82
2024/02/15 10:51:19;;;;;;;;;;;;;;;6.96;100.00;99787.91;4994940;28;19918;-90
2024/02/15 10:53:50;;;;;;;;;;;;;;;7.04;100.00;99783.28;5012674;28;19940;-92
2024/02/15 10:56:19;;;;;;;;;;;;;;;7.01;100.00;99783.38;5011725;28;19918;-83
2024/02/15 10:58:49;;;;;;;;;;;;;;;6.95;100.00;99780.91;5012273;28;20368;-88
2024/02/15 11:01:17;;;;;;;;;;;;;;;7.04;100.00;99780.66;4993302;28;20327;-88
2024/02/15 11:03:51;;;;;;;;;;;;;;;7.02;100.00;99769.31;5012296;28;19922;-89
2024/02/15 11:06:17;;;;;;;;;;;;;;;7.01;100.00;99767.56;4993979;28;19918;-89
2024/02/15 11:08:44;;;;;;;;;;;;;;;6.98;100.00;99775.56;5012437;28;19917;-87
2024/02/15 11:11:11;;;;;;;;;;;;;;;6.93;100.00;99764.28;5012290;28;19921;-81
2024/02/15 11:13:37;;;;;;;;;;;;;;;6.98;100.00;99767.66;5011494;28;20021;-82
2024/02/15 11:16:03;;;;;;;;;;;;;;;7.02;100.00;99757.88;5010744;28;20004;-87
2024/02/15 11:18:51;;;;;;;;;;;;;;;7.07;100.00;99756.84;5012431;28;19925;-85
2024/02/15 11:21:17;;;;;;;;;;;;;;;7.07;100.00;99750.75;5013042;28;20378;-80
2024/02/15 11:23:44;;;;;;;;;;;;;;;7.05;100.00;99749.91;5018705;28;19921;-84
2024/02/15 11:26:10;;;;;;;;;;;;;;;7.06;100.00;99749.84;5018559;28;19929;-81
2024/02/15 11:28:36;;;;;;;;;;;;;;;7.13;100.00;99744.41;5018671;28;20033;-88
2024/02/15 11:31:03;;;;;;;;;;;;;;;7.18;100.00;99743.38;5017365;28;19971;-84
2024/02/15 11:33:29;;;;;;;;;;;;;;;7.06;100.00;99733.19;5017729;28;20383;-81
2024/02/15 11:36:16;;;;;;;;;;;;;;;7.14;100.00;99725.06;5018517;28;20000;-82
2024/02/15 11:38:45;;;;;;;;;;;;;;;7.11;100.00;99722.50;5018541;28;19921;-84
2024/02/15 11:41:10;;;;;;;;;;;;;;;7.15;100.00;99716.22;5017850;28;19968;-88
2024/02/15 11:43:56;;;;;;;;;;;;;;;7.08;100.00;99716.44;5018661;28;19917;-80
2024/02/15 11:46:24;;;;;;;;;;;;;;;7.08;100.00;99718.19;5016791;28;19921;-80
2024/02/15 11:48:49;;;;;;;;;;;;;;;7.08;100.00;99705.91;5017653;28;20004;-82
2024/02/15 11:51:31;;;;;;;;;;;;;;;7.06;100.00;99704.22;5018224;28;20012;-85
2024/02/15 11:54:07;;;;;;;;;;;;;;;7.09;100.00;99704.97;5018191;28;20391;-82
2024/02/15 11:56:50;;;;;;;;;;;;;;;7.12;100.00;99696.13;5018020;28;20011;-83
2024/02/15 11:59:28;;;;;;;;;;;;;;;7.07;100.00;99685.72;5018149;28;19976;-87
2024/02/15 12:21:07;;;;;;;;;;;;;;;7.07;100.00;99650.63;5018238;28;19951;-80
2024/02/15 12:23:33;;;;;;;;;;;;;;;7.16;100.00;99638.91;5018731;28;19941;-81
2024/02/15 12:25:59;;;;;;;;;;;;;;;7.12;100.00;99643.44;5000887;28;20016;-81
2024/02/15 12:28:25;;;;;;;;;;;;;;;7.07;100.00;99646.19;5018331;28;19921;-86
2024/02/15 12:30:54;;;;;;;;;;;;;;;7.14;100.00;99641.59;5016510;28;19917;-84
2024/02/15 12:33:21;;;;;;;;;;;;;;;7.07;100.00;99629.53;5016328;28;19921;-86
2024/02/15 12:35:46;;;;;;;;;;;;;;;7.12;100.00;99624.97;5015219;28;19959;-85
2024/02/15 12:38:16;;;;;;;;;;;;;;;7.08;100.00;99618.94;5014840;28;19929;-84
2024/02/15 12:40:41;;;;;;;;;;;;;;;7.04;100.00;99614.69;4997299;28;19918;-82
2024/02/15 12:43:11;;;;;;;;;;;;;;;7.11;100.00;99611.84;5014801;28;19921;-84
2024/02/15 12:45:38;;;;;;;;;;;;;;;7.13;100.00;99602.13;5013290;28;19922;-83
2024/02/15 12:48:04;;;;;;;;;;;;;;;7.13;100.00;99600.34;4996602;28;19968;-88
2024/02/15 12:50:30;;;;;;;;;;;;;;;7.13;100.00;99602.13;5014867;28;19925;-87
2024/02/15 12:52:59;;;;;;;;;;;;;;;7.20;100.00;99598.38;5014997;28;20365;-90
2024/02/15 12:55:25;;;;;;;;;;;;;;;7.15;100.00;99597.66;4996178;28;20284;-89
2024/02/15 12:57:55;;;;;;;;;;;;;;;7.24;100.00;99585.06;4996993;28;19918;-82
2024/02/15 13:00:28;;;;;;;;;;;;;;;7.11;100.00;99588.13;5013160;28;19928;-88
2024/02/15 13:02:55;;;;;;;;;;;;;;;7.20;100.00;99582.56;4984072;28;19922;-84
2024/02/15 13:05:21;;;;;;;;;;;;;;;7.21;100.00;99568.47;4985180;28;19925;-91
2024/02/15 13:07:47;;;;;;;;;;;;;;;7.15;100.00;99566.91;4985211;28;20407;-90
2024/02/15 13:10:14;;;;;;;;;;;;;;;7.04;100.00;99572.53;4983875;28;19922;-89
2024/02/15 13:12:40;;;;;;;;;;;;;;;7.21;100.00;99569.34;4985035;28;19988;-90
2024/02/15 13:15:07;;;;;;;;;;;;;;;7.22;100.00;99555.25;4982402;28;20025;-81
2024/02/15 13:17:33;;;;;;;;;;;;;;;7.19;100.00;99549.22;4983939;28;19918;-90
2024/02/15 13:20:03;;;;;;;;;;;;;;;7.20;100.00;99543.91;4985202;28;19925;-87
2024/02/15 13:22:28;;;;;;;;;;;;;;;7.24;100.00;99542.03;4984530;28;19922;-92
2024/02/15 13:24:55;;;;;;;;;;;;;;;7.15;100.00;99547.59;4983596;28;20349;-90
2024/02/15 13:27:21;;;;;;;;;;;;;;;7.14;100.00;99540.63;4984866;28;20292;-90
2024/02/15 13:29:46;;;;;;;;;;;;;;;7.16;100.00;99531.72;4982295;28;19918;-92
2024/02/15 13:32:12;;;;;;;;;;;;;;;7.19;100.00;99525.50;4983140;28;19922;-85
2024/02/15 13:34:37;;;;;;;;;;;;;;;7.17;100.00;99524.72;4985059;28;20331;-86
2024/02/15 13:37:04;;;;;;;;;;;;;;;7.14;100.00;99525.66;4984550;28;20037;-90
2024/02/15 13:39:32;;;;;;;;;;;;;;;7.08;100.00;99523.22;4984304;28;19933;-92
2024/02/15 13:41:58;;;;;;;;;;;;;;;7.18;100.00;99522.03;4984746;28;20312;-92
2024/02/15 13:44:24;;;;;;;;;;;;;;;7.16;100.00;99525.59;4982884;28;19928;-92
2024/02/15 13:46:49;;;;;;;;;;;;;;;7.25;100.00;99514.75;4984005;28;19922;-90
2024/02/15 13:49:15;;;;;;;;;;;;;;;7.15;100.00;99514.22;4984003;28;19984;-87
2024/02/15 13:51:40;;;;;;;;;;;;;;;7.14;100.00;99506.34;4984083;28;19920;-87
2024/02/15 13:54:05;;;;;;;;;;;;;;;7.26;100.00;99498.06;4985195;28;20427;-92
2024/02/15 13:56:31;;;;;;;;;;;;;;;7.23;100.00;99496.38;4984466;28;19918;-87
2024/02/15 13:58:56;;;;;;;;;;;;;;;7.21;100.00;99490.28;4985588;28;20370;-86
2024/02/15 14:01:21;;;;;;;;;;;;;;;7.26;100.00;99487.50;4981447;28;19926;-90
2024/02/15 14:03:46;;;;;;;;;;;;;;;7.24;100.00;99486.69;4983587;28;20016;-83
2024/02/15 14:06:12;;;;;;;;;;;;;;;7.21;100.00;99492.94;4983880;28;20354;-85
2024/02/15 14:08:37;;;;;;;;;;;;;;;7.16;100.00;99492.19;4984114;28;19918;-89
2024/02/15 14:11:03;;;;;;;;;;;;;;;7.14;100.00;99487.91;4982800;28;19944;-88
2024/02/15 14:13:30;;;;;;;;;;;;;;;7.25;100.00;99480.50;4983915;28;20053;-90
2024/02/15 14:15:56;;;;;;;;;;;;;;;7.24;100.00;99473.50;4982283;28;19997;-85
2024/02/15 14:18:21;;;;;;;;;;;;;;;7.21;100.00;99470.97;4983969;28;20444;-87
2024/02/15 14:20:50;;;;;;;;;;;;;;;7.13;100.00;99470.38;4983690;28;20541;-91
2024/02/15 14:23:15;;;;;;;;;;;;;;;7.28;100.00;99464.59;4983378;28;19926;-91
2024/02/15 14:25:41;;;;;;;;;;;;;;;7.22;100.00;99467.44;4984007;28;20400;-92
2024/02/15 14:28:09;;;;;;;;;;;;;;;7.18;100.00;99463.16;4983805;28;19918;-92
2024/02/15 14:33:19;;;;;;;;;;;;;;;7.31;100.00;99469.75;4982869;28;19924;-89
2024/02/15 14:35:44;;;;;;;;;;;;;;;7.23;100.00;99466.53;4984077;28;20304;-83
2024/02/15 14:38:10;;;;;;;;;;;;;;;7.19;100.00;99467.53;4982275;28;19976;-86
2024/02/15 14:40:40;;;;;;;;;;;;;;;7.20;100.00;99467.47;4983523;28;19922;-88
2024/02/15 14:43:06;;;;;;;;;;;;;;;7.31;100.00;99461.84;4981671;28;19960;-89
2024/02/15 14:45:36;;;;;;;;;;;;;;;7.25;100.00;99462.06;4983802;28;19941;-85
2024/02/15 14:48:02;;;;;;;;;;;;;;;7.22;100.00;99456.88;4984601;28;19957;-87
2024/02/15 14:50:28;;;;;;;;;;;;;;;7.19;100.00;99460.47;4983234;28;19922;-90
2024/02/15 14:52:54;;;;;;;;;;;;;;;7.19;100.00;99454.34;4984129;28;19977;-86
2024/02/15 14:55:19;;;;;;;;;;;;;;;7.23;100.00;99454.19;4984270;28;19933;-81
2024/02/15 14:57:45;;;;;;;;;;;;;;;7.27;100.00;99452.31;4982622;28;19971;-81
2024/02/15 15:00:12;;;;;;;;;;;;;;;7.23;100.00;99448.94;4981705;28;19918;-87
2024/02/15 15:02:37;;;;;;;;;;;;;;;7.18;100.00;99448.25;5008411;28;19928;-81
2024/02/15 15:13:14;;;;;;;;;;;;;;;7.25;100.00;99448.88;5013842;28;19925;-89
2024/02/15 15:15:40;;;;;;;;;;;;;;;7.23;100.00;99443.66;5011631;28;19918;-90
2024/02/15 15:18:05;;;;;;;;;;;;;;;7.25;100.00;99444.47;5012669;28;20291;-89
2024/02/15 15:20:33;;;;;;;;;;;;;;;7.27;100.00;99447.94;5012293;28;19983;-87
2024/02/15 15:22:58;;;;;;;;;;;;;;;7.29;100.00;99445.22;5012548;28;19921;-87
2024/02/15 15:25:23;;;;;;;;;;;;;;;7.36;100.00;99441.47;5012882;28;19918;-86
2024/02/15 15:27:50;;;;;;;;;;;;;;;7.37;100.00;99440.56;5012333;28;20373;-91
2024/02/15 15:30:18;;;;;;;;;;;;;;;7.26;100.00;99438.28;5010106;28;20336;-85
2024/02/15 15:32:46;;;;;;;;;;;;;;;7.30;100.00;99440.81;5012319;28;19967;-88
2024/02/15 15:35:12;;;;;;;;;;;;;;;7.21;100.00;99437.59;5012158;28;20285;-91
2024/02/15 15:37:38;;;;;;;;;;;;;;;7.30;100.00;99436.41;5012397;28;19918;-88
2024/02/15 15:40:04;;;;;;;;;;;;;;;7.32;100.00;99441.63;5012178;28;20004;-88
2024/02/15 15:42:29;;;;;;;;;;;;;;;7.28;100.00;99433.81;5012605;28;19926;-86
2024/02/15 15:44:55;;;;;;;;;;;;;;;7.28;100.00;99422.41;5012128;28;20396;-93
2024/02/15 15:47:22;;;;;;;;;;;;;;;7.32;100.00;99417.91;5012653;28;19968;-88
2024/02/15 15:49:47;;;;;;;;;;;;;;;7.30;100.00;99407.41;5011347;28;19918;-87
2024/02/15 15:52:12;;;;;;;;;;;;;;;7.21;100.00;99400.69;5012161;28;19922;-92
2024/02/15 15:54:39;;;;;;;;;;;;;;;7.23;100.00;99398.00;5012082;28;19921;-88
2024/02/15 15:57:05;;;;;;;;;;;;;;;7.27;100.00;99395.22;5012078;28;20375;-86
2024/02/15 15:59:30;;;;;;;;;;;;;;;7.33;100.00;99393.28;5010650;28;19922;-91
2024/02/15 16:01:55;;;;;;;;;;;;;;;7.35;100.00;99389.66;5012054;28;19969;-91
2024/02/15 16:04:22;;;;;;;;;;;;;;;7.35;100.00;99375.63;5011900;28;19925;-86
2024/02/15 16:06:47;;;;;;;;;;;;;;;7.31;100.00;99380.16;5011919;28;19913;-91
2024/02/15 16:09:12;;;;;;;;;;;;;;;7.32;100.00;99381.84;4995963;28;19921;-92
2024/02/15 16:11:38;;;;;;;;;;;;;;;7.34;100.00;99379.16;5015852;28;19917;-90
2024/02/15 16:14:08;;;;;;;;;;;;;;;7.26;100.00;99390.84;5015435;28;19918;-89
2024/02/15 16:16:33;;;;;;;;;;;;;;;7.28;100.00;99386.38;4996381;28;19948;-87
2024/02/15 16:18:59;;;;;;;;;;;;;;;7.32;100.00;99399.44;5015487;28;20301;-81
2024/02/15 16:21:25;;;;;;;;;;;;;;;7.33;100.00;99399.41;5015314;28;19922;-85
2024/02/15 16:23:51;;;;;;;;;;;;;;;7.34;100.00;99395.84;4997878;28;19924;-90
2024/02/15 16:26:16;;;;;;;;;;;;;;;7.28;100.00;99393.44;5015173;28;19928;-91
2024/02/15 16:28:41;;;;;;;;;;;;;;;7.33;100.00;99403.81;5015321;28;19928;-83
2024/02/15 16:31:07;;;;;;;;;;;;;;;7.32;100.00;99408.19;4996554;28;19921;-89
2024/02/15 16:33:33;;;;;;;;;;;;;;;7.30;100.00;99396.88;5014827;28;19932;-87
2024/02/15 16:35:58;;;;;;;;;;;;;;;7.27;100.00;99410.16;5014490;28;20432;-84
2024/02/15 16:38:24;;;;;;;;;;;;;;;7.28;100.00;99406.59;4998712;28;19921;-93
2024/02/15 16:40:50;;;;;;;;;;;;;;;7.32;100.00;99405.56;4997773;28;19921;-87
2024/02/15 16:43:15;;;;;;;;;;;;;;;7.41;100.00;99407.88;5015069;28;19918;-88
2024/02/15 16:45:41;;;;;;;;;;;;;;;7.30;100.00;99406.56;4996164;28;20007;-84
2024/02/15 16:48:06;;;;;;;;;;;;;;;7.36;100.00;99414.25;5014743;28;19926;-80
2024/02/15 16:50:33;;;;;;;;;;;;;;;7.33;100.00;99409.94;5014868;28;20349;-82
2024/02/15 16:52:59;;;;;;;;;;;;;;;7.34;100.00;99401.13;4997453;28;20395;-89
2024/02/15 16:55:29;;;;;;;;;;;;;;;7.35;100.00;99397.56;5014697;28;19960;-86
2024/02/15 16:58:00;;;;;;;;;;;;;;;7.34;100.00;99403.75;4998102;28;20360;-92
2024/02/15 17:00:25;;;;;;;;;;;;;;;7.40;100.00;99400.03;4996130;28;20287;-88
2024/02/15 17:02:51;;;;;;;;;;;;;;;7.35;100.00;99396.69;5014499;28;19921;-89
2024/02/15 17:05:17;;;;;;;;;;;;;;;7.31;100.00;99401.22;5013424;28;20388;-86
2024/02/15 17:07:43;;;;;;;;;;;;;;;7.33;100.00;99396.75;4996011;28;19924;-87
2024/02/15 17:10:08;;;;;;;;;;;;;;;7.37;100.00;99395.75;5014519;28;20268;-86
2024/02/15 17:12:37;;;;;;;;;;;;;;;7.40;100.00;99387.72;5014676;28;20360;-88
2024/02/15 17:15:07;;;;;;;;;;;;;;;7.43;100.00;99384.94;4996149;28;20293;-90
2024/02/15 17:17:32;;;;;;;;;;;;;;;7.36;100.00;99379.97;5016529;28;19968;-86
2024/02/15 17:19:58;;;;;;;;;;;;;;;7.38;100.00;99386.91;5014014;28;19968;-86
2024/02/15 17:22:23;;;;;;;;;;;;;;;7.31;100.00;99395.06;4996485;28;19983;-83
2024/02/15 17:24:48;;;;;;;;;;;;;;;7.37;100.00;99385.19;5014067;28;19921;-87
2024/02/15 17:27:14;;;;;;;;;;;;;;;7.39;100.00;99387.78;5014247;28;19968;-88
2024/02/15 17:29:40;;;;;;;;;;;;;;;7.36;100.00;99383.47;5013058;28;19922;-91
2024/02/15 17:32:06;;;;;;;;;;;;;;;7.37;100.00;99368.50;5014156;28;20427;-84
2024/02/15 17:34:31;;;;;;;;;;;;;;;7.36;100.00;99367.66;5013960;28;19917;-88
2024/02/15 17:36:58;;;;;;;;;;;;;;;7.35;100.00;99372.97;5014281;28;19929;-86
2024/02/15 17:39:23;;;;;;;;;;;;;;;7.34;100.00;99384.44;5013256;28;19926;-86
2024/02/15 17:41:48;;;;;;;;;;;;;;;7.30;100.00;99388.97;5013208;28;19925;-86
2024/02/15 17:44:13;;;;;;;;;;;;;;;7.41;100.00;99381.53;5013166;28;19928;-89
2024/02/15 17:46:39;;;;;;;;;;;;;;;7.36;100.00;99386.09;5011364;28;19933;-88
2024/02/15 17:49:05;;;;;;;;;;;;;;;7.31;100.00;99401.22;5013668;28;19918;-85
2024/02/15 17:51:33;;;;;;;;;;;;;;;7.28;100.00;99399.56;5012450;28;19936;-86
2024/02/15 17:53:58;;;;;;;;;;;;;;;7.28;100.00;99403.97;4996350;28;19925;-84
2024/02/15 17:56:24;;;;;;;;;;;;;;;7.34;100.00;99398.50;5013023;28;19991;-87
2024/02/15 17:58:49;;;;;;;;;;;;;;;7.31;100.00;99401.22;5012953;28;19932;-84
2024/02/15 18:01:15;;;;;;;;;;;;;;;7.31;100.00;99406.50;4994245;28;19928;-87
2024/02/15 18:03:40;;;;;;;;;;;;;;;7.34;100.00;99402.88;5013402;28;20292;-86
2024/02/15 18:06:09;;;;;;;;;;;;;;;7.25;100.00;99406.72;5013387;28;19918;-84
2024/02/15 18:08:35;;;;;;;;;;;;;;;7.31;100.00;99408.25;5013328;28;20023;-89
2024/02/15 18:11:01;;;;;;;;;;;;;;;7.35;100.00;99410.72;5013720;28;19917;-93
2024/02/15 18:13:29;;;;;;;;;;;;;;;7.35;100.00;99400.19;5013299;28;19925;-88
2024/02/15 18:15:55;;;;;;;;;;;;;;;7.40;100.00;99398.28;5012047;28;20305;-90
2024/02/15 18:18:22;;;;;;;;;;;;;;;7.36;100.00;99393.16;5013193;28;19917;-86
2024/02/15 18:20:47;;;;;;;;;;;;;;;7.38;100.00;99386.91;5012869;28;19944;-91
2024/02/15 18:23:12;;;;;;;;;;;;;;;7.32;100.00;99392.38;4995342;28;20360;-91
2024/02/15 18:25:38;;;;;;;;;;;;;;;7.35;100.00;99391.44;5012443;28;19921;-87
2024/02/15 18:28:03;;;;;;;;;;;;;;;7.38;100.00;99392.16;5012867;28;19929;-86
2024/02/15 18:30:34;;;;;;;;;;;;;;;7.39;100.00;99400.97;5001229;28;19944;-88
2024/02/15 18:33:00;;;;;;;;;;;;;;;7.36;100.00;99396.66;5011784;28;19922;-90
2024/02/15 18:35:26;;;;;;;;;;;;;;;7.41;100.00;99397.34;5013219;28;19971;-89
2024/02/15 18:37:51;;;;;;;;;;;;;;;7.34;100.00;99389.69;4995312;28;20020;-91
2024/02/15 18:40:16;;;;;;;;;;;;;;;7.27;100.00;99392.59;5012730;28;20441;-84
2024/02/15 18:42:43;;;;;;;;;;;;;;;7.34;100.00;99395.84;5011846;28;19933;-83
2024/02/15 18:45:08;;;;;;;;;;;;;;;7.28;100.00;99396.06;4994488;28;20008;-86
2024/02/15 18:47:37;;;;;;;;;;;;;;;7.31;100.00;99406.50;5012100;28;20053;-87
2024/02/15 18:50:03;;;;;;;;;;;;;;;7.32;100.00;99408.19;5011840;28;19925;-89
2024/02/15 18:52:28;;;;;;;;;;;;;;;7.26;100.00;99400.53;4996056;28;20292;-90
2024/02/15 18:54:57;;;;;;;;;;;;;;;7.27;100.00;99400.50;5012835;28;19921;-79
2024/02/15 18:57:26;;;;;;;;;;;;;;;7.37;100.00;99401.03;5011642;28;19926;-86
2024/02/15 18:59:51;;;;;;;;;;;;;;;7.32;100.00;99395.03;4992777;28;20059;-88
2024/02/15 19:02:20;;;;;;;;;;;;;;;7.30;100.00;99394.22;5012381;28;19972;-82
2024/02/15 19:04:45;;;;;;;;;;;;;;;7.32;100.00;99396.81;5012477;28;19946;-86
2024/02/15 19:07:11;;;;;;;;;;;;;;;7.33;100.00;99391.50;5012230;28;20022;-86
2024/02/15 19:09:36;;;;;;;;;;;;;;;7.36;100.00;99394.00;5012059;28;19925;-89
2024/02/15 19:12:01;;;;;;;;;;;;;;;7.31;100.00;99392.44;5011521;28;19976;-85
2024/02/15 19:14:27;;;;;;;;;;;;;;;7.36;100.00;99393.16;4993286;28;19928;-84
2024/02/15 19:16:53;;;;;;;;;;;;;;;7.37;100.00;99394.88;5010974;28;19932;-81
2024/02/15 19:19:19;;;;;;;;;;;;;;;7.31;100.00;99390.69;5011385;28;19960;-85
2024/02/15 19:21:47;;;;;;;;;;;;;;;7.32;100.00;99389.75;4995105;28;19925;-84
2024/02/15 19:24:13;;;;;;;;;;;;;;;7.32;100.00;99392.38;5011797;28;19944;-84
2024/02/15 19:26:41;;;;;;;;;;;;;;;7.35;100.00;99394.91;5011762;28;19925;-89
2024/02/15 19:29:12;;;;;;;;;;;;;;;7.34;100.00;99390.59;4995114;28;19936;-87
2024/02/15 19:31:39;;;;;;;;;;;;;;;7.39;100.00;99377.25;5010500;28;19953;-82
2024/02/15 19:34:04;;;;;;;;;;;;;;;7.42;100.00;99363.94;5010629;28;19922;-85
2024/02/15 19:36:30;;;;;;;;;;;;;;;7.41;100.00;99373.63;4994975;28;19928;-82
2024/02/15 19:38:55;;;;;;;;;;;;;;;7.37;100.00;99377.28;4994489;28;19925;-89
2024/02/15 19:41:21;;;;;;;;;;;;;;;7.38;100.00;99376.34;5012041;28;20357;-84
2024/02/15 19:43:50;;;;;;;;;;;;;;;7.29;100.00;99395.13;4996757;28;19926;-86
2024/02/15 19:46:15;;;;;;;;;;;;;;;7.30;100.00;99406.56;5014842;28;19917;-85
2024/02/15 19:48:41;;;;;;;;;;;;;;;7.33;100.00;99396.75;5015588;28;19948;-87
2024/02/15 19:51:09;;;;;;;;;;;;;;;7.28;100.00;99401.34;4998556;28;19922;-84
2024/02/15 19:53:34;;;;;;;;;;;;;;;7.38;100.00;99407.13;5015074;28;19965;-87
2024/02/15 19:55:59;;;;;;;;;;;;;;;7.34;100.00;99400.25;5015583;28;19964;-84
2024/02/15 19:58:25;;;;;;;;;;;;;;;7.33;100.00;99393.28;4997406;28;19928;-86
2024/02/15 20:00:51;;;;;;;;;;;;;;;7.31;100.00;99389.81;5013828;28;19925;-89
2024/02/15 20:03:16;;;;;;;;;;;;;;;7.31;100.00;99390.69;5014993;28;19925;-89
2024/02/15 20:05:42;;;;;;;;;;;;;;;7.33;100.00;99385.38;4996831;28;19975;-89
2024/02/15 20:08:07;;;;;;;;;;;;;;;7.34;100.00;99395.84;5015332;28;19967;-87
2024/02/15 20:10:35;;;;;;;;;;;;;;;7.39;100.00;99382.50;5014786;28;19922;-90
2024/02/15 20:13:00;;;;;;;;;;;;;;;7.34;100.00;99374.78;4999599;28;19922;-89
2024/02/15 20:15:26;;;;;;;;;;;;;;;7.33;100.00;99378.31;5014646;28;19944;-85
2024/02/15 20:17:51;;;;;;;;;;;;;;;7.41;100.00;99381.53;5015661;28;20000;-89
2024/02/15 20:20:18;;;;;;;;;;;;;;;7.43;100.00;99370.91;4997815;28;19933;-87
2024/02/15 20:23:01;;;;;;;;;;;;;;;7.35;100.00;99363.28;4998556;28;19932;-91
2024/02/15 20:25:26;;;;;;;;;;;;;;;7.38;100.00;99372.88;5014680;28;20308;-88
2024/02/15 20:27:51;;;;;;;;;;;;;;;7.36;100.00;99375.56;4997203;28;19937;-86
2024/02/15 20:30:19;;;;;;;;;;;;;;;7.39;100.00;99362.28;5013471;28;20277;-85
2024/02/15 20:32:45;;;;;;;;;;;;;;;7.23;100.00;99363.75;4997226;28;20349;-87
2024/02/15 20:35:10;;;;;;;;;;;;;;;7.27;100.00;99358.31;4997502;28;19968;-92
2024/02/15 20:37:35;;;;;;;;;;;;;;;7.30;100.00;99352.06;5015262;28;19921;-86
2024/02/15 20:40:01;;;;;;;;;;;;;;;7.25;100.00;99362.75;4996933;28;19925;-87
2024/02/15 20:42:26;;;;;;;;;;;;;;;7.38;100.00;99364.97;4997760;28;19929;-91
2024/02/15 20:44:52;;;;;;;;;;;;;;;7.32;100.00;99360.75;5013448;28;19921;-90
2024/02/15 20:47:19;;;;;;;;;;;;;;;7.33;100.00;99359.84;5013969;28;19922;-88
2024/02/15 20:49:44;;;;;;;;;;;;;;;7.29;100.00;99360.88;5014224;28;19933;-82
2024/02/15 20:52:09;;;;;;;;;;;;;;;7.39;100.00;99361.44;5013667;28;20036;-91
2024/02/15 20:54:35;;;;;;;;;;;;;;;7.33;100.00;99366.91;5013303;28;20353;-87
2024/02/15 20:57:00;;;;;;;;;;;;;;;7.29;100.00;99360.88;4999042;28;19921;-86
2024/02/15 20:59:26;;;;;;;;;;;;;;;7.27;100.00;99358.31;4996656;28;19928;-82
2024/02/15 21:01:52;;;;;;;;;;;;;;;7.30;100.00;99359.97;5014418;28;19949;-91
2024/02/15 21:04:17;;;;;;;;;;;;;;;7.39;100.00;99364.06;4997843;28;19921;-90
2024/02/15 21:06:43;;;;;;;;;;;;;;;7.45;100.00;99355.91;5013835;28;19966;-90
2024/02/15 21:09:13;;;;;;;;;;;;;;;7.36;100.00;99351.00;5013836;28;19933;-89
2024/02/15 21:11:38;;;;;;;;;;;;;;;7.36;100.00;99354.47;4996667;28;19928;-91
2024/02/15 21:14:03;;;;;;;;;;;;;;;7.26;100.00;99356.59;5014321;28;19925;-91
2024/02/15 21:16:31;;;;;;;;;;;;;;;7.35;100.00;99357.16;5013324;28;19917;-90
2024/02/15 21:18:57;;;;;;;;;;;;;;;7.34;100.00;99353.69;4996776;28;19924;-93
2024/02/15 21:21:22;;;;;;;;;;;;;;;7.37;100.00;99343.03;5013027;28;19925;-90
2024/02/15 21:23:47;;;;;;;;;;;;;;;7.25;100.00;99349.59;5014294;28;19918;-92
2024/02/15 21:26:13;;;;;;;;;;;;;;;7.32;100.00;99355.50;4997190;28;19932;-86